UAE826 OEDF-OMDB
Flight info
| Callsign | UAE826 |
|---|---|
| Flight time | 0h 54m |
| Altitude | 9000 |
| Route | ROTEL N572 DAVRI P559 VUTEB |
| Aircraft | B77W/H-SDE1E2E3FGHIJ2J3J4J5M1RWXY/LB1D1 |
Departure
| Time | 2026-04-20 12:39 |
|---|---|
| Airport | King Fahd International Airport (OEDF) |
Arrival
| Time | 2026-04-20 13:34 |
|---|---|
| Airport | Dubai International Airport (OMDB) |
| Time | Latitude | Longitude | Altitude | Speed | Heading |
|---|---|---|---|---|---|
| 2026-04-20 12:37 | 26.45529 | 49.79489 | 93 ft | 9 kts | 173° |
| 2026-04-20 12:38 | 26.45444 | 49.79386 | 92 ft | 29 kts | 253° |
| 2026-04-20 12:38 | 26.45497 | 49.79185 | 95 ft | 30 kts | 333° |
| 2026-04-20 12:38 | 26.45628 | 49.79136 | 94 ft | 33 kts | 344° |
| 2026-04-20 12:38 | 26.46086 | 49.78994 | 93 ft | 109 kts | 344° |
| 2026-04-20 12:39 | 26.48771 | 49.78159 | 762 ft | 204 kts | 349° |
| 2026-04-20 12:39 | 26.50123 | 49.77754 | 1679 ft | 199 kts | 349° |
| 2026-04-20 12:39 | 26.51482 | 49.77330 | 2485 ft | 207 kts | 349° |
| 2026-04-20 12:40 | 26.52895 | 49.76877 | 3252 ft | 216 kts | 349° |
| 2026-04-20 12:40 | 26.54376 | 49.76407 | 3978 ft | 225 kts | 349° |
| 2026-04-20 12:40 | 26.55918 | 49.75922 | 4696 ft | 238 kts | 348° |
| 2026-04-20 12:40 | 26.57552 | 49.75420 | 5338 ft | 248 kts | 350° |
| 2026-04-20 12:41 | 26.59344 | 49.75523 | 5711 ft | 279 kts | 24° |
| 2026-04-20 12:41 | 26.60880 | 49.76926 | 6775 ft | 299 kts | 60° |
| 2026-04-20 12:41 | 26.61547 | 49.79119 | 8233 ft | 302 kts | 91° |
| 2026-04-20 12:41 | 26.61496 | 49.81486 | 9522 ft | 313 kts | 96° |
| 2026-04-20 12:42 | 26.61494 | 49.83985 | 10715 ft | 331 kts | 92° |
| 2026-04-20 12:42 | 26.61594 | 49.86671 | 11583 ft | 363 kts | 89° |
| 2026-04-20 12:42 | 26.61794 | 49.89630 | 12138 ft | 402 kts | 86° |
| 2026-04-20 12:42 | 26.62091 | 49.92862 | 12878 ft | 428 kts | 84° |
| 2026-04-20 12:43 | 26.62452 | 49.96210 | 14071 ft | 438 kts | 83° |
| 2026-04-20 12:43 | 26.62844 | 49.99606 | 15308 ft | 444 kts | 83° |
| 2026-04-20 12:43 | 26.63246 | 50.03003 | 16592 ft | 450 kts | 82° |
| 2026-04-20 12:43 | 26.63661 | 50.06505 | 17848 ft | 457 kts | 82° |
| 2026-04-20 12:44 | 26.64079 | 50.10056 | 18871 ft | 465 kts | 82° |
| 2026-04-20 12:44 | 26.64499 | 50.13668 | 19854 ft | 472 kts | 82° |
| 2026-04-20 12:44 | 26.64923 | 50.17334 | 20850 ft | 479 kts | 83° |
| 2026-04-20 12:44 | 26.65349 | 50.21050 | 21795 ft | 485 kts | 83° |
| 2026-04-20 12:45 | 26.65779 | 50.24812 | 22673 ft | 492 kts | 83° |
| 2026-04-20 12:45 | 26.66215 | 50.28630 | 23491 ft | 498 kts | 83° |
| 2026-04-20 12:45 | 26.66655 | 50.32489 | 24184 ft | 503 kts | 83° |
| 2026-04-20 12:45 | 26.67171 | 50.36378 | 24913 ft | 507 kts | 80° |
| 2026-04-20 12:46 | 26.67995 | 50.40217 | 25634 ft | 510 kts | 73° |
| 2026-04-20 12:46 | 26.69062 | 50.44006 | 26315 ft | 513 kts | 72° |
| 2026-04-20 12:46 | 26.70108 | 50.47830 | 26916 ft | 517 kts | 75° |
| 2026-04-20 12:46 | 26.70855 | 50.51775 | 27450 ft | 521 kts | 82° |
| 2026-04-20 12:47 | 26.71241 | 50.55814 | 28009 ft | 523 kts | 88° |
| 2026-04-20 12:47 | 26.71327 | 50.59889 | 28547 ft | 525 kts | 94° |
| 2026-04-20 12:47 | 26.71116 | 50.63968 | 29050 ft | 527 kts | 96° |
| 2026-04-20 12:47 | 26.70855 | 50.68065 | 29482 ft | 530 kts | 96° |
| 2026-04-20 12:48 | 26.70585 | 50.72193 | 29891 ft | 533 kts | 96° |
| 2026-04-20 12:48 | 26.70322 | 50.76337 | 30237 ft | 535 kts | 96° |
| 2026-04-20 12:48 | 26.70071 | 50.80491 | 30630 ft | 536 kts | 95° |
| 2026-04-20 12:48 | 26.69828 | 50.84651 | 31063 ft | 535 kts | 95° |
| 2026-04-20 12:49 | 26.69591 | 50.88808 | 31489 ft | 535 kts | 95° |
| 2026-04-20 12:49 | 26.69356 | 50.92953 | 31903 ft | 535 kts | 95° |
| 2026-04-20 12:49 | 26.69118 | 50.97109 | 32291 ft | 535 kts | 95° |
| 2026-04-20 12:49 | 26.68879 | 51.01261 | 32684 ft | 536 kts | 94° |
| 2026-04-20 12:50 | 26.68637 | 51.05415 | 33074 ft | 536 kts | 94° |
| 2026-04-20 12:50 | 26.68393 | 51.09571 | 33469 ft | 536 kts | 94° |
| 2026-04-20 12:50 | 26.68148 | 51.13728 | 33833 ft | 536 kts | 94° |
| 2026-04-20 12:50 | 26.67901 | 51.17881 | 34145 ft | 537 kts | 94° |
| 2026-04-20 12:51 | 26.67652 | 51.22060 | 34374 ft | 539 kts | 94° |
| 2026-04-20 12:51 | 26.67401 | 51.26250 | 34602 ft | 541 kts | 94° |
| 2026-04-20 12:51 | 26.67148 | 51.30461 | 34770 ft | 545 kts | 94° |
| 2026-04-20 12:52 | 26.66627 | 51.38944 | 34841 ft | 546 kts | 95° |
| 2026-04-20 12:52 | 26.65342 | 51.47246 | 34842 ft | 541 kts | 105° |
| 2026-04-20 12:53 | 26.62925 | 51.55179 | 34849 ft | 538 kts | 112° |
| 2026-04-20 12:53 | 26.60304 | 51.63026 | 34841 ft | 539 kts | 111° |
| 2026-04-20 12:54 | 26.57762 | 51.70908 | 34835 ft | 540 kts | 111° |
| 2026-04-20 12:54 | 26.55202 | 51.78808 | 34833 ft | 541 kts | 111° |
| 2026-04-20 12:55 | 26.52649 | 51.86731 | 34831 ft | 543 kts | 111° |
| 2026-04-20 12:55 | 26.50043 | 51.94645 | 34830 ft | 544 kts | 112° |
| 2026-04-20 12:56 | 26.47388 | 52.02558 | 34825 ft | 544 kts | 112° |
| 2026-04-20 12:56 | 26.44762 | 52.10418 | 34821 ft | 545 kts | 111° |
| 2026-04-20 12:57 | 26.42113 | 52.18338 | 34821 ft | 545 kts | 111° |
| 2026-04-20 12:57 | 26.39456 | 52.26246 | 34825 ft | 544 kts | 111° |
| 2026-04-20 12:58 | 26.36798 | 52.34147 | 34820 ft | 543 kts | 111° |
| 2026-04-20 12:58 | 26.34552 | 52.40743 | 34819 ft | 542 kts | 113° |
| 2026-04-20 12:58 | 26.32616 | 52.45870 | 34647 ft | 543 kts | 115° |
| 2026-04-20 12:59 | 26.31591 | 52.48473 | 34396 ft | 541 kts | 115° |
| 2026-04-20 12:59 | 26.29601 | 52.53514 | 33931 ft | 531 kts | 115° |
| 2026-04-20 12:59 | 26.28144 | 52.57256 | 33549 ft | 522 kts | 114° |
| 2026-04-20 12:59 | 26.26723 | 52.60952 | 33162 ft | 515 kts | 114° |
| 2026-04-20 13:00 | 26.25324 | 52.64606 | 32760 ft | 511 kts | 114° |
| 2026-04-20 13:00 | 26.23937 | 52.68225 | 32375 ft | 507 kts | 114° |
| 2026-04-20 13:00 | 26.22556 | 52.71823 | 31999 ft | 503 kts | 114° |
| 2026-04-20 13:00 | 26.21188 | 52.75392 | 31619 ft | 499 kts | 114° |
| 2026-04-20 13:01 | 26.20287 | 52.77742 | 31394 ft | 497 kts | 114° |
| 2026-04-20 13:01 | 26.18933 | 52.81269 | 31026 ft | 494 kts | 114° |
| 2026-04-20 13:02 | 26.13477 | 52.95457 | 30817 ft | 498 kts | 114° |
| 2026-04-20 13:02 | 26.12096 | 52.99041 | 30811 ft | 497 kts | 114° |
| 2026-04-20 13:03 | 26.09388 | 53.06099 | 30812 ft | 495 kts | 114° |
| 2026-04-20 13:03 | 26.06808 | 53.13130 | 30809 ft | 494 kts | 113° |
| 2026-04-20 13:04 | 26.04233 | 53.20214 | 30814 ft | 493 kts | 113° |
| 2026-04-20 13:04 | 26.01646 | 53.27266 | 30810 ft | 492 kts | 113° |
| 2026-04-20 13:05 | 25.99052 | 53.34303 | 30812 ft | 492 kts | 113° |
| 2026-04-20 13:05 | 25.96454 | 53.41337 | 30820 ft | 492 kts | 113° |
| 2026-04-20 13:06 | 25.93854 | 53.48370 | 30813 ft | 492 kts | 113° |
| 2026-04-20 13:06 | 25.91348 | 53.55433 | 30812 ft | 491 kts | 111° |
| 2026-04-20 13:07 | 25.88950 | 53.62522 | 30810 ft | 490 kts | 111° |
| 2026-04-20 13:07 | 25.86530 | 53.69580 | 30809 ft | 488 kts | 111° |
| 2026-04-20 13:08 | 25.84092 | 53.76605 | 30808 ft | 487 kts | 112° |
| 2026-04-20 13:08 | 25.81648 | 53.83601 | 30809 ft | 485 kts | 112° |
| 2026-04-20 13:09 | 25.79208 | 53.90584 | 30810 ft | 485 kts | 112° |
| 2026-04-20 13:09 | 25.76771 | 53.97554 | 30811 ft | 485 kts | 112° |
| 2026-04-20 13:10 | 25.74389 | 54.04542 | 30810 ft | 485 kts | 110° |
| 2026-04-20 13:10 | 25.72241 | 54.11637 | 30810 ft | 485 kts | 109° |
| 2026-04-20 13:11 | 25.70101 | 54.18728 | 30808 ft | 485 kts | 109° |
| 2026-04-20 13:11 | 25.67918 | 54.25803 | 30807 ft | 485 kts | 109° |
| 2026-04-20 13:12 | 25.65726 | 54.32868 | 30808 ft | 485 kts | 110° |
| 2026-04-20 13:12 | 25.63553 | 54.39935 | 30584 ft | 477 kts | 109° |
| 2026-04-20 13:12 | 25.62507 | 54.43362 | 29805 ft | 462 kts | 110° |
| 2026-04-20 13:13 | 25.61473 | 54.46743 | 28618 ft | 469 kts | 110° |
| 2026-04-20 13:13 | 25.60412 | 54.50200 | 27399 ft | 480 kts | 110° |
| 2026-04-20 13:13 | 25.59343 | 54.53731 | 26470 ft | 485 kts | 108° |
| 2026-04-20 13:13 | 25.58601 | 54.57385 | 25602 ft | 488 kts | 98° |
| 2026-04-20 13:14 | 25.58320 | 54.61133 | 24808 ft | 489 kts | 91° |
| 2026-04-20 13:14 | 25.58452 | 54.64886 | 24121 ft | 487 kts | 83° |
| 2026-04-20 13:14 | 25.58942 | 54.68579 | 23534 ft | 483 kts | 80° |
| 2026-04-20 13:14 | 25.59471 | 54.72246 | 22890 ft | 479 kts | 80° |
| 2026-04-20 13:15 | 25.59972 | 54.75866 | 22315 ft | 473 kts | 81° |
| 2026-04-20 13:15 | 25.60436 | 54.79445 | 21771 ft | 459 kts | 81° |
| 2026-04-20 13:15 | 25.60864 | 54.82866 | 20671 ft | 441 kts | 81° |
| 2026-04-20 13:15 | 25.60987 | 54.86167 | 20040 ft | 418 kts | 96° |
| 2026-04-20 13:16 | 25.60325 | 54.89165 | 19817 ft | 384 kts | 113° |
| 2026-04-20 13:16 | 25.59274 | 54.91760 | 19624 ft | 356 kts | 115° |
| 2026-04-20 13:16 | 25.58286 | 54.94157 | 19258 ft | 338 kts | 115° |
| 2026-04-20 13:16 | 25.57339 | 54.96497 | 18752 ft | 328 kts | 114° |
| 2026-04-20 13:17 | 25.56428 | 54.98787 | 18126 ft | 323 kts | 114° |
| 2026-04-20 13:17 | 25.55526 | 55.01072 | 17446 ft | 328 kts | 113° |
| 2026-04-20 13:17 | 25.54613 | 55.03379 | 17137 ft | 324 kts | 115° |
| 2026-04-20 13:17 | 25.53584 | 55.05576 | 16875 ft | 319 kts | 120° |
| 2026-04-20 13:18 | 25.52481 | 55.07662 | 16569 ft | 308 kts | 121° |
| 2026-04-20 13:18 | 25.51390 | 55.09692 | 15809 ft | 306 kts | 121° |
| 2026-04-20 13:18 | 25.50307 | 55.11728 | 14992 ft | 307 kts | 120° |
| 2026-04-20 13:18 | 25.49254 | 55.13734 | 14198 ft | 308 kts | 120° |
| 2026-04-20 13:19 | 25.48184 | 55.15786 | 13450 ft | 306 kts | 119° |
| 2026-04-20 13:19 | 25.47130 | 55.17815 | 12708 ft | 302 kts | 119° |
| 2026-04-20 13:19 | 25.46088 | 55.19799 | 12040 ft | 295 kts | 122° |
| 2026-04-20 13:19 | 25.44843 | 55.21590 | 11393 ft | 296 kts | 131° |
| 2026-04-20 13:20 | 25.43458 | 55.23239 | 10907 ft | 287 kts | 133° |
| 2026-04-20 13:20 | 25.42109 | 55.24815 | 10311 ft | 277 kts | 133° |
| 2026-04-20 13:20 | 25.40817 | 55.26349 | 9755 ft | 266 kts | 132° |
| 2026-04-20 13:20 | 25.39612 | 55.27807 | 9345 ft | 249 kts | 131° |
| 2026-04-20 13:21 | 25.38477 | 55.29192 | 8888 ft | 237 kts | 131° |
| 2026-04-20 13:21 | 25.37401 | 55.30509 | 8562 ft | 223 kts | 131° |
| 2026-04-20 13:21 | 25.36375 | 55.31767 | 8433 ft | 221 kts | 131° |
| 2026-04-20 13:21 | 25.35364 | 55.33075 | 8317 ft | 226 kts | 124° |
| 2026-04-20 13:22 | 25.34513 | 55.34538 | 8025 ft | 225 kts | 120° |
| 2026-04-20 13:22 | 25.33714 | 55.36018 | 7480 ft | 223 kts | 119° |
| 2026-04-20 13:22 | 25.32920 | 55.37491 | 6945 ft | 222 kts | 119° |
| 2026-04-20 13:22 | 25.32130 | 55.38945 | 6398 ft | 220 kts | 119° |
| 2026-04-20 13:23 | 25.31338 | 55.40390 | 5830 ft | 219 kts | 120° |
| 2026-04-20 13:23 | 25.30563 | 55.41791 | 5554 ft | 208 kts | 120° |
| 2026-04-20 13:23 | 25.29797 | 55.43175 | 5375 ft | 216 kts | 120° |
| 2026-04-20 13:23 | 25.29000 | 55.44608 | 5172 ft | 221 kts | 120° |
| 2026-04-20 13:24 | 25.28191 | 55.46061 | 4973 ft | 222 kts | 120° |
| 2026-04-20 13:24 | 25.27385 | 55.47505 | 4777 ft | 220 kts | 120° |
| 2026-04-20 13:24 | 25.26587 | 55.48942 | 4579 ft | 219 kts | 120° |
| 2026-04-20 13:24 | 25.25791 | 55.50372 | 4369 ft | 217 kts | 120° |
| 2026-04-20 13:25 | 25.25006 | 55.51782 | 4157 ft | 215 kts | 120° |
| 2026-04-20 13:25 | 25.24228 | 55.53180 | 3984 ft | 212 kts | 121° |
| 2026-04-20 13:25 | 25.23460 | 55.54562 | 3793 ft | 211 kts | 121° |
| 2026-04-20 13:25 | 25.22698 | 55.55934 | 3613 ft | 209 kts | 121° |
| 2026-04-20 13:26 | 25.21936 | 55.57301 | 3428 ft | 208 kts | 121° |
| 2026-04-20 13:26 | 25.21178 | 55.58663 | 3239 ft | 209 kts | 121° |
| 2026-04-20 13:26 | 25.20413 | 55.60034 | 3061 ft | 210 kts | 122° |
| 2026-04-20 13:26 | 25.19644 | 55.61412 | 2871 ft | 211 kts | 123° |
| 2026-04-20 13:27 | 25.18631 | 55.62508 | 2648 ft | 208 kts | 155° |
| 2026-04-20 13:27 | 25.17224 | 55.62735 | 2490 ft | 204 kts | 193° |
| 2026-04-20 13:27 | 25.16068 | 55.62016 | 2451 ft | 187 kts | 231° |
| 2026-04-20 13:27 | 25.15394 | 55.60898 | 2459 ft | 166 kts | 241° |
| 2026-04-20 13:28 | 25.14847 | 55.59847 | 2454 ft | 152 kts | 242° |
| 2026-04-20 13:28 | 25.14326 | 55.58825 | 2461 ft | 153 kts | 246° |
| 2026-04-20 13:28 | 25.14215 | 55.57695 | 2434 ft | 150 kts | 283° |
| 2026-04-20 13:28 | 25.14452 | 55.56559 | 2465 ft | 152 kts | 284° |
| 2026-04-20 13:29 | 25.14853 | 55.55492 | 2455 ft | 150 kts | 298° |
| 2026-04-20 13:29 | 25.15347 | 55.54479 | 2461 ft | 150 kts | 300° |
| 2026-04-20 13:29 | 25.15871 | 55.53474 | 2458 ft | 151 kts | 301° |
| 2026-04-20 13:29 | 25.16404 | 55.52488 | 2469 ft | 149 kts | 301° |
| 2026-04-20 13:30 | 25.16942 | 55.51505 | 2450 ft | 150 kts | 302° |
| 2026-04-20 13:30 | 25.17492 | 55.50512 | 2262 ft | 151 kts | 301° |
| 2026-04-20 13:30 | 25.18033 | 55.49530 | 2057 ft | 147 kts | 302° |
| 2026-04-20 13:30 | 25.18562 | 55.48579 | 1879 ft | 146 kts | 302° |
| 2026-04-20 13:31 | 25.19096 | 55.47611 | 1713 ft | 148 kts | 302° |
| 2026-04-20 13:31 | 25.19627 | 55.46651 | 1517 ft | 146 kts | 302° |
| 2026-04-20 13:31 | 25.20153 | 55.45700 | 1335 ft | 145 kts | 302° |
| 2026-04-20 13:31 | 25.20678 | 55.44747 | 1126 ft | 145 kts | 302° |
| 2026-04-20 13:32 | 25.21199 | 55.43809 | 968 ft | 144 kts | 301° |
| 2026-04-20 13:32 | 25.21724 | 55.42859 | 788 ft | 145 kts | 301° |
| 2026-04-20 13:32 | 25.22242 | 55.41915 | 568 ft | 142 kts | 302° |
| 2026-04-20 13:32 | 25.22764 | 55.40992 | 329 ft | 143 kts | 301° |
| 2026-04-20 13:33 | 25.23290 | 55.40033 | 170 ft | 147 kts | 302° |
| 2026-04-20 13:33 | 25.23814 | 55.39088 | 42 ft | 137 kts | 302° |
| 2026-04-20 13:33 | 25.24254 | 55.38289 | 37 ft | 100 kts | 301° |
| 2026-04-20 13:33 | 25.24522 | 55.37809 | 34 ft | 50 kts | 301° |
| 2026-04-20 13:34 | 25.24613 | 55.37484 | 31 ft | 42 kts | 273° |
| 2026-04-20 13:34 | 25.24620 | 55.37318 | 28 ft | 20 kts | 272° |
| 2026-04-20 13:34 | 25.24669 | 55.37181 | 28 ft | 20 kts | 302° |
| 2026-04-20 13:34 | 25.24742 | 55.37052 | 28 ft | 20 kts | 302° |
| 2026-04-20 13:35 | 25.24729 | 55.36923 | 27 ft | 20 kts | 212° |
| 2026-04-20 13:35 | 25.24609 | 55.36846 | 26 ft | 20 kts | 211° |
| 2026-04-20 13:35 | 25.24489 | 55.36766 | 30 ft | 20 kts | 211° |
| 2026-04-20 13:35 | 25.24396 | 55.36657 | 29 ft | 20 kts | 243° |
| 2026-04-20 13:36 | 25.24380 | 55.36507 | 26 ft | 20 kts | 278° |
| 2026-04-20 13:36 | 25.24435 | 55.36421 | 31 ft | 11 kts | 352° |
| 2026-04-20 13:36 | 25.24505 | 55.36451 | 30 ft | 11 kts | 31° |
| 2026-04-20 13:36 | 25.24542 | 55.36476 | 30 ft | 5 kts | 31° |
| 2026-04-20 13:37 | 25.24560 | 55.36488 | 29 ft | 3 kts | 31° |
| 2026-04-20 13:37 | 25.24562 | 55.36489 | 29 ft | 0 kts | 31° |